Time;durP1;ratioP1;P1;durP2;ratioP2;P2;SDS_P1;SDS_P2;PMS_P1;PMS_P2;Temp;Humidity;BMP_temperature;BMP_pressure;BME280_temperature;BME280_humidity;BME280_pressure;Samples;Min_cycle;Max_cycle;Signal;HPM_P1;HPM_P2
2021/04/05 00:00:29;;;;;;;27.52;15.07;;;5.20;90.40;;;;;;5069946;28;20312;-38
2021/04/05 00:02:56;;;;;;;26.33;14.48;;;5.20;90.50;;;;;;5086231;28;20074;-38
2021/04/05 00:05:28;;;;;;;23.33;14.40;;;5.20;90.40;;;;;;5084856;28;20076;-38
2021/04/05 00:07:55;;;;;;;28.60;16.10;;;5.20;90.40;;;;;;5080776;28;20156;-38
2021/04/05 00:10:24;;;;;;;28.17;15.43;;;5.20;90.40;;;;;;5071931;28;20060;-38
2021/04/05 00:12:58;;;;;;;30.98;15.48;;;5.30;90.30;;;;;;5075152;28;20427;-38
2021/04/05 00:15:27;;;;;;;31.00;15.98;;;5.40;90.50;;;;;;5076400;28;20125;-38
2021/04/05 00:17:59;;;;;;;27.67;15.02;;;5.30;90.60;;;;;;5077093;28;20264;-38
2021/04/05 00:20:45;;;;;;;28.23;14.68;;;5.30;90.40;;;;;;5073942;28;20052;-39
2021/04/05 00:23:14;;;;;;;28.58;15.18;;;5.40;90.60;;;;;;5072493;28;20067;-37
2021/04/05 00:25:40;;;;;;;29.30;16.40;;;5.40;90.70;;;;;;5081730;28;20058;-38
2021/04/05 00:28:08;;;;;;;31.67;17.20;;;5.40;90.60;;;;;;5074065;28;20060;-38
2021/04/05 00:30:37;;;;;;;28.45;17.05;;;5.50;90.70;;;;;;5083012;28;20036;-38
2021/04/05 00:33:04;;;;;;;29.10;17.58;;;5.50;90.50;;;;;;5079301;28;20105;-38
2021/04/05 00:35:33;;;;;;;35.35;18.40;;;5.60;90.70;;;;;;5077098;28;20045;-38
2021/04/05 00:38:02;;;;;;;31.20;17.48;;;5.60;90.80;;;;;;5074136;28;20167;-38
2021/04/05 00:40:42;;;;;;;29.23;16.83;;;5.70;90.80;;;;;;5078682;28;20121;-38
2021/04/05 00:43:11;;;;;;;34.15;19.35;;;5.70;90.70;;;;;;5073338;28;20493;-38
2021/04/05 00:45:40;;;;;;;37.78;17.63;;;5.80;90.70;;;;;;5075144;28;20040;-38
2021/04/05 00:48:07;;;;;;;32.30;18.33;;;5.80;90.90;;;;;;5069365;28;20053;-38
2021/04/05 00:50:33;;;;;;;33.65;18.55;;;5.90;90.90;;;;;;5073435;28;20075;-38
2021/04/05 00:53:04;;;;;;;36.90;19.27;;;5.90;90.90;;;;;;5075976;28;20478;-38
2021/04/05 00:55:30;;;;;;;39.28;17.83;;;5.90;90.90;;;;;;5078512;28;20040;-38
2021/04/05 00:57:58;;;;;;;34.75;18.17;;;5.90;91.00;;;;;;5079528;28;20768;-38
2021/04/05 01:00:43;;;;;;;36.38;18.50;;;6.00;91.00;;;;;;5069168;28;20048;-38
2021/04/05 01:03:17;;;;;;;34.42;18.15;;;6.00;91.20;;;;;;5067483;28;20078;-38
2021/04/05 01:05:47;;;;;;;35.63;19.38;;;6.00;91.00;;;;;;5069742;28;20076;-38
2021/04/05 01:08:16;;;;;;;34.20;19.63;;;6.00;91.30;;;;;;5078299;28;20128;-38
2021/04/05 01:10:50;;;;;;;38.95;19.67;;;6.10;91.30;;;;;;5080679;28;20135;-38
2021/04/05 01:13:17;;;;;;;36.28;20.20;;;6.10;91.40;;;;;;5076796;28;20052;-38
2021/04/05 01:15:43;;;;;;;38.95;19.30;;;6.10;91.60;;;;;;5070626;28;20067;-38
2021/04/05 01:18:10;;;;;;;38.28;20.10;;;6.10;91.60;;;;;;5077733;28;20058;-38
2021/04/05 01:20:36;;;;;;;38.63;20.63;;;6.20;91.70;;;;;;5077807;28;20044;-38
2021/04/05 01:23:08;;;;;;;35.60;20.42;;;6.30;91.70;;;;;;5067354;28;20056;-38
2021/04/05 01:25:44;;;;;;;45.17;20.38;;;6.30;91.80;;;;;;5071141;28;20048;-38
2021/04/05 01:28:10;;;;;;;41.13;20.30;;;6.40;91.70;;;;;;5096550;28;20040;-38
2021/04/05 01:31:00;;;;;;;44.00;22.60;;;6.40;91.70;;;;;;5088023;28;20051;-39
2021/04/05 01:33:29;;;;;;;40.05;20.75;;;6.50;91.80;;;;;;5077334;28;20480;-38
2021/04/05 01:36:00;;;;;;;42.28;20.63;;;6.50;91.70;;;;;;5071318;28;20083;-38
2021/04/05 01:38:27;;;;;;;44.88;20.00;;;6.50;91.60;;;;;;5080247;28;20109;-38
2021/04/05 01:40:56;;;;;;;50.35;20.77;;;6.50;91.90;;;;;;5075080;28;20578;-38
2021/04/05 01:43:26;;;;;;;42.53;19.75;;;6.60;91.70;;;;;;5079523;28;20071;-38
2021/04/05 01:45:56;;;;;;;38.72;21.90;;;6.60;92.00;;;;;;5077130;28;20472;-38
2021/04/05 01:48:25;;;;;;;;;;;6.60;91.90;;;;;;5087225;28;20629;-38
2021/04/05 01:50:59;;;;;;;42.78;21.13;;;6.70;92.20;;;;;;5074801;28;20437;-38
2021/04/05 01:53:26;;;;;;;42.80;20.15;;;6.70;92.10;;;;;;5081529;28;20514;-38
2021/04/05 01:55:57;;;;;;;38.53;20.30;;;6.70;92.10;;;;;;5076724;28;20048;-38
2021/04/05 01:58:23;;;;;;;41.80;20.33;;;6.80;92.00;;;;;;5079157;28;20059;-38
2021/04/05 02:00:50;;;;;;;40.10;19.02;;;6.80;92.00;;;;;;5071318;28;20076;-38
2021/04/05 02:03:19;;;;;;;39.60;17.10;;;6.90;91.90;;;;;;5079818;28;20075;-38
2021/04/05 02:05:55;;;;;;;34.65;15.73;;;7.10;91.20;;;;;;5069820;28;20147;-38
2021/04/05 02:08:27;;;;;;;29.83;15.35;;;7.20;90.70;;;;;;5074057;28;20053;-38
2021/04/05 02:11:05;;;;;;;35.97;15.10;;;7.30;90.20;;;;;;5080290;28;20044;-38
2021/04/05 02:13:31;;;;;;;29.77;15.07;;;7.40;89.40;;;;;;5074130;28;20048;-38
2021/04/05 02:16:03;;;;;;;29.45;14.02;;;7.40;88.70;;;;;;5073631;28;20051;-38
2021/04/05 02:18:31;;;;;;;34.65;15.40;;;7.50;88.00;;;;;;5074437;28;20051;-38
2021/04/05 02:21:05;;;;;;;30.38;13.35;;;7.50;88.10;;;;;;5074254;28;20516;-38
2021/04/05 02:23:31;;;;;;;32.63;14.77;;;7.60;87.40;;;;;;5082977;28;20117;-38
2021/04/05 02:26:08;;;;;;;27.98;13.75;;;7.60;87.20;;;;;;5075876;28;20155;-38
2021/04/05 02:28:59;;;;;;;29.75;12.40;;;7.60;87.40;;;;;;5073671;28;20068;-39
2021/04/05 02:31:25;;;;;;;31.67;13.45;;;7.60;87.50;;;;;;5077577;28;20078;-38
2021/04/05 02:33:56;;;;;;;32.25;14.57;;;7.60;87.00;;;;;;5079153;28;20040;-37
2021/04/05 02:36:28;;;;;;;30.33;15.07;;;7.60;87.10;;;;;;5077062;28;20135;-39
2021/04/05 02:39:00;;;;;;;26.60;13.52;;;7.60;87.20;;;;;;5081737;28;20040;-38
2021/04/05 02:41:31;;;;;;;29.13;15.18;;;7.60;87.30;;;;;;5075852;28;20606;-38
2021/04/05 02:44:01;;;;;;;29.02;13.60;;;7.60;87.40;;;;;;5079085;28;20048;-38
2021/04/05 02:46:32;;;;;;;32.90;13.93;;;7.60;86.90;;;;;;5075747;28;20036;-38
2021/04/05 02:49:00;;;;;;;28.10;12.43;;;7.60;86.90;;;;;;5069037;28;20052;-38
2021/04/05 02:51:26;;;;;;;27.60;12.60;;;7.60;86.70;;;;;;5081575;28;20132;-38
2021/04/05 02:53:58;;;;;;;27.45;12.30;;;7.60;86.70;;;;;;5082491;28;20380;-38
2021/04/05 02:56:30;;;;;;;27.80;12.00;;;7.60;86.50;;;;;;5079794;28;20408;-38
2021/04/05 02:59:02;;;;;;;31.05;13.45;;;7.60;86.50;;;;;;5070438;28;20039;-38
2021/04/05 03:01:31;;;;;;;28.40;13.75;;;7.60;86.50;;;;;;5072819;28;20048;-38
2021/04/05 03:04:01;;;;;;;29.25;13.90;;;7.60;86.50;;;;;;5084010;28;20052;-38
2021/04/05 03:06:30;;;;;;;35.20;13.48;;;7.60;86.30;;;;;;5069641;28;20067;-38
2021/04/05 03:09:04;;;;;;;23.73;11.55;;;7.60;86.30;;;;;;5079271;28;20044;-38
2021/04/05 03:11:31;;;;;;;23.38;10.50;;;7.60;86.10;;;;;;5078377;28;20068;-38
2021/04/05 03:13:57;;;;;;;32.47;12.50;;;7.60;86.10;;;;;;5078418;28;20086;-38
2021/04/05 03:16:26;;;;;;;25.52;11.05;;;7.60;86.40;;;;;;5080135;28;20094;-38
2021/04/05 03:18:56;;;;;;;26.63;11.52;;;7.70;86.40;;;;;;5074081;28;20112;-37
2021/04/05 03:21:28;;;;;;;30.02;12.30;;;7.60;86.80;;;;;;5077705;28;20048;-38
2021/04/05 03:24:02;;;;;;;28.00;11.05;;;7.60;87.80;;;;;;5069173;28;20048;-38
2021/04/05 03:26:31;;;;;;;29.33;12.18;;;7.60;87.90;;;;;;5078931;28;20106;-38
2021/04/05 03:29:02;;;;;;;26.60;10.93;;;7.60;88.60;;;;;;5075529;28;20053;-38
2021/04/05 03:31:35;;;;;;;27.27;10.95;;;7.60;89.00;;;;;;5079030;28;20059;-38
2021/04/05 03:34:20;;;;;;;29.27;11.27;;;7.60;89.30;;;;;;5078860;28;20052;-37
2021/04/05 03:36:57;;;;;;;26.77;10.63;;;7.50;90.00;;;;;;5073876;28;20093;-38
2021/04/05 03:39:23;;;;;;;26.48;11.73;;;7.50;90.30;;;;;;5070630;28;20048;-38
2021/04/05 03:42:09;;;;;;;28.83;11.45;;;7.50;90.30;;;;;;5076806;28;20408;-38
2021/04/05 03:44:49;;;;;;;29.00;11.80;;;7.40;90.90;;;;;;5075928;28;20063;-38
2021/04/05 03:47:33;;;;;;;25.70;11.93;;;7.40;91.10;;;;;;5077261;28;20052;-38
2021/04/05 03:50:23;;;;;;;20.15;10.02;;;7.40;91.10;;;;;;5074862;28;20088;-38
2021/04/05 03:52:56;;;;;;;26.58;10.50;;;7.30;91.50;;;;;;5080360;28;20053;-38
2021/04/05 03:55:27;;;;;;;27.95;11.38;;;7.30;91.30;;;;;;5080367;28;20048;-38
2021/04/05 03:57:57;;;;;;;29.27;11.45;;;7.30;91.40;;;;;;5074692;28;20060;-38
2021/04/05 04:00:26;;;;;;;27.85;10.75;;;7.30;91.60;;;;;;5080660;28;20047;-38
2021/04/05 04:02:58;;;;;;;26.55;10.93;;;7.30;91.10;;;;;;5078740;28;20438;-38
2021/04/05 04:05:36;;;;;;;25.67;10.90;;;7.30;91.00;;;;;;5070968;28;20098;-37
2021/04/05 04:08:21;;;;;;;30.58;11.35;;;7.40;90.90;;;;;;5076265;28;20384;-39
2021/04/05 04:10:54;;;;;;;21.45;9.43;;;7.30;91.30;;;;;;5073377;28;20044;-40
2021/04/05 04:13:22;;;;;;;20.50;7.78;;;7.20;91.70;;;;;;5073535;28;20048;-40
2021/04/05 04:15:50;;;;;;;16.13;5.05;;;7.00;91.70;;;;;;5074612;28;20048;-39
2021/04/05 04:18:21;;;;;;;13.43;4.63;;;6.90;91.10;;;;;;5067490;28;20106;-39
2021/04/05 04:20:48;;;;;;;12.50;4.07;;;6.70;91.00;;;;;;5066993;28;20052;-39
2021/04/05 04:23:14;;;;;;;14.82;4.13;;;6.60;91.40;;;;;;5078572;28;20060;-39
2021/04/05 04:25:41;;;;;;;15.90;4.97;;;6.60;91.50;;;;;;5075258;28;20044;-39
2021/04/05 04:28:14;;;;;;;11.48;3.55;;;6.50;91.70;;;;;;5067964;28;20037;-39
2021/04/05 04:30:41;;;;;;;13.13;3.63;;;6.40;91.80;;;;;;5068772;28;20048;-39
2021/04/05 04:33:12;;;;;;;6.85;2.13;;;6.30;92.10;;;;;;5074457;28;20087;-39
2021/04/05 04:35:40;;;;;;;10.02;2.15;;;6.20;90.50;;;;;;5067756;28;20040;-39
2021/04/05 04:38:06;;;;;;;3.80;1.40;;;5.90;89.40;;;;;;5076802;28;20051;-39
2021/04/05 04:40:36;;;;;;;7.97;1.50;;;5.70;89.60;;;;;;5074627;28;20048;-39
2021/04/05 04:43:05;;;;;;;5.43;1.42;;;5.60;90.40;;;;;;5073930;28;20056;-39
2021/04/05 04:45:32;;;;;;;7.07;1.30;;;5.40;90.90;;;;;;5076119;28;20075;-38
2021/04/05 04:48:01;;;;;;;9.43;1.73;;;5.40;91.60;;;;;;5081090;28;20051;-38
2021/04/05 04:50:28;;;;;;;6.43;1.35;;;5.30;92.00;;;;;;5085982;28;20559;-39
2021/04/05 04:52:57;;;;;;;3.78;1.50;;;5.20;92.20;;;;;;5075760;28;20044;-39
2021/04/05 04:55:27;;;;;;;4.57;0.98;;;5.10;92.30;;;;;;5077450;28;20048;-39
2021/04/05 04:57:58;;;;;;;2.58;0.65;;;5.00;91.70;;;;;;5073773;28;20086;-38
2021/04/05 05:00:25;;;;;;;4.20;1.13;;;4.90;91.40;;;;;;5081848;28;20193;-38
2021/04/05 05:02:56;;;;;;;3.20;1.15;;;4.80;91.40;;;;;;5074124;28;20060;-39
2021/04/05 05:05:29;;;;;;;5.70;1.05;;;4.70;91.70;;;;;;5086747;28;20055;-39
2021/04/05 05:07:59;;;;;;;5.38;1.20;;;4.70;91.10;;;;;;5077649;28;20060;-38
2021/04/05 05:10:29;;;;;;;4.63;1.27;;;4.60;90.80;;;;;;5071252;28;20052;-38
2021/04/05 05:12:58;;;;;;;3.67;1.02;;;4.50;90.80;;;;;;5073251;28;20075;-38
2021/04/05 05:15:34;;;;;;;4.22;1.20;;;4.50;91.30;;;;;;5082720;28;20044;-38
2021/04/05 05:18:05;;;;;;;5.53;1.25;;;4.50;91.70;;;;;;5078001;28;20143;-38
2021/04/05 05:20:33;;;;;;;4.40;1.08;;;4.40;92.10;;;;;;5075168;28;20151;-38
2021/04/05 05:23:02;;;;;;;10.27;1.40;;;4.40;92.20;;;;;;5070685;28;20048;-39
2021/04/05 05:25:33;;;;;;;9.23;1.55;;;4.30;92.40;;;;;;5080859;28;20135;-37
2021/04/05 05:28:04;;;;;;;6.13;1.58;;;4.30;92.60;;;;;;5076731;28;20479;-38
2021/04/05 05:30:30;;;;;;;7.50;2.17;;;4.20;93.10;;;;;;5073719;28;20048;-40
2021/04/05 05:33:00;;;;;;;6.43;1.70;;;4.20;93.30;;;;;;5077065;28;20135;-38
2021/04/05 05:35:26;;;;;;;5.63;1.15;;;4.10;93.30;;;;;;5077458;28;20048;-37
2021/04/05 05:37:57;;;;;;;8.38;1.50;;;4.10;93.50;;;;;;5076015;28;20839;-38
2021/04/05 05:40:26;;;;;;;3.70;1.20;;;4.10;93.50;;;;;;5079745;28;20495;-38
2021/04/05 05:43:09;;;;;;;3.55;0.95;;;4.10;93.60;;;;;;5084971;28;20071;-41
2021/04/05 05:45:52;;;;;;;5.38;1.35;;;4.20;93.90;;;;;;5081563;28;20044;-44
2021/04/05 05:48:25;;;;;;;3.60;1.10;;;4.20;93.40;;;;;;5086843;28;20047;-41
2021/04/05 05:51:14;;;;;;;3.05;0.73;;;4.30;93.20;;;;;;5073273;28;20488;-42
2021/04/05 05:54:03;;;;;;;3.53;0.80;;;4.40;93.20;;;;;;5081261;28;20059;-42
2021/04/05 05:56:54;;;;;;;4.10;0.90;;;4.30;92.70;;;;;;5073926;28;20564;-36
2021/04/05 05:59:36;;;;;;;3.40;1.52;;;4.30;91.70;;;;;;5083905;28;20097;-37
2021/04/05 06:02:23;;;;;;;3.42;0.90;;;4.30;91.90;;;;;;5075188;28;20052;-37
2021/04/05 06:05:01;;;;;;;5.20;0.75;;;4.20;92.10;;;;;;5079794;28;20050;-37
2021/04/05 06:07:32;;;;;;;33.15;21.63;;;4.10;91.70;;;;;;5077115;28;20062;-38
2021/04/05 06:10:28;;;;;;;3.72;1.10;;;4.10;92.00;;;;;;5080904;28;20052;-38
2021/04/05 06:13:12;;;;;;;18.67;8.85;;;4.10;91.80;;;;;;5082248;28;20206;-38
2021/04/05 06:15:55;;;;;;;9.00;3.72;;;4.10;92.10;;;;;;5077488;28;20058;-38
2021/04/05 06:18:25;;;;;;;;;;;4.20;92.20;;;;;;5079848;28;20044;-37
2021/04/05 06:21:05;;;;;;;4.53;1.40;;;4.10;92.30;;;;;;5072815;28;19969;-37
2021/04/05 06:23:45;;;;;;;3.90;1.55;;;4.00;92.40;;;;;;5071943;28;20040;-38
2021/04/05 06:26:22;;;;;;;5.80;1.33;;;4.10;92.40;;;;;;5070309;28;20071;-37
2021/04/05 06:29:22;;;;;;;5.88;1.50;;;4.10;92.20;;;;;;5104669;27;20093;-37
2021/04/05 06:31:54;;;;;;;8.82;1.60;;;4.00;91.40;;;;;;5071174;28;20106;-37
2021/04/05 06:34:35;;;;;;;15.25;7.68;;;4.10;91.30;;;;;;5081298;28;20503;-37
2021/04/05 06:37:26;;;;;;;15.38;5.10;;;4.00;91.40;;;;;;5072037;28;20493;-37
2021/04/05 06:39:58;;;;;;;18.15;6.95;;;4.00;91.30;;;;;;5072487;28;20055;-37
2021/04/05 06:42:46;;;;;;;10.68;1.88;;;4.10;91.10;;;;;;5078687;28;20135;-37
2021/04/05 06:45:36;;;;;;;11.25;2.83;;;4.00;90.10;;;;;;5079059;28;20044;-37
2021/04/05 06:48:28;;;;;;;11.07;2.05;;;4.10;90.20;;;;;;5081477;28;20559;-37
2021/04/05 06:51:15;;;;;;;8.90;2.75;;;4.10;89.70;;;;;;5070675;28;20052;-37
2021/04/05 06:53:56;;;;;;;9.38;2.20;;;4.30;90.40;;;;;;5077341;28;20096;-38
2021/04/05 06:56:50;;;;;;;10.13;1.77;;;4.20;89.80;;;;;;5068241;28;20048;-37
2021/04/05 06:59:55;;;;;;;10.75;2.67;;;4.30;89.90;;;;;;5077076;28;20048;-37
2021/04/05 07:02:48;;;;;;;15.98;3.17;;;4.40;89.40;;;;;;5053827;28;20049;-37
2021/04/05 07:05:34;;;;;;;15.82;2.80;;;4.40;88.30;;;;;;5052283;28;20585;-38
2021/04/05 07:08:04;;;;;;;37.42;18.77;;;4.50;89.10;;;;;;5059890;28;20059;-37
2021/04/05 07:10:37;;;;;;;27.52;9.50;;;4.60;87.30;;;;;;5063251;28;20915;-37
2021/04/05 07:13:21;;;;;;;18.10;2.70;;;4.60;85.50;;;;;;5061811;28;20533;-37
2021/04/05 07:16:18;;;;;;;22.38;5.63;;;4.40;83.50;;;;;;5065594;28;20052;-37
2021/04/05 07:19:02;;;;;;;17.67;8.32;;;4.50;83.60;;;;;;5061277;28;20044;-38
2021/04/05 07:21:54;;;;;;;19.98;4.90;;;4.70;82.80;;;;;;5051862;28;20451;-38
2021/04/05 07:24:46;;;;;;;14.07;2.88;;;4.60;78.70;;;;;;5058727;28;20046;-40
2021/04/05 07:27:41;;;;;;;16.25;3.55;;;4.40;77.30;;;;;;5052858;28;20048;-40
2021/04/05 07:30:09;;;;;;;62.22;39.50;;;4.70;79.10;;;;;;5011467;28;20054;-40
2021/04/05 07:32:58;;;;;;;23.92;10.32;;;4.60;78.60;;;;;;5007098;28;20068;-40
2021/04/05 07:35:35;;;;;;;8.52;2.28;;;4.60;78.10;;;;;;5012616;28;20061;-40
2021/04/05 07:38:25;;;;;;;19.35;9.25;;;4.50;75.70;;;;;;5018269;28;20073;-40
2021/04/05 07:41:11;;;;;;;14.43;2.28;;;4.40;74.80;;;;;;5046786;28;20904;-39
2021/04/05 07:43:43;;;;;;;13.15;3.00;;;4.40;77.10;;;;;;5052249;28;20059;-39
2021/04/05 07:46:18;;;;;;;7.25;1.90;;;4.20;80.90;;;;;;5054825;28;20044;-40
2021/04/05 07:49:01;;;;;;;9.98;1.67;;;3.90;82.00;;;;;;5050914;28;20045;-40
2021/04/05 07:52:01;;;;;;;7.60;1.17;;;3.50;82.10;;;;;;5049849;28;20409;-40
2021/04/05 07:54:33;;;;;;;4.28;1.40;;;3.40;83.90;;;;;;5031496;28;20776;-39
2021/04/05 07:57:20;;;;;;;7.85;1.20;;;3.40;84.50;;;;;;5052935;28;20048;-39
2021/04/05 08:00:10;;;;;;;3.88;1.27;;;3.40;84.60;;;;;;5053812;28;20045;-40
2021/04/05 08:02:56;;;;;;;7.57;2.53;;;3.60;83.40;;;;;;5054414;28;20048;-38
2021/04/05 08:05:42;;;;;;;10.60;3.60;;;3.90;83.90;;;;;;5053719;28;20078;-38
2021/04/05 08:08:27;;;;;;;8.50;1.98;;;3.90;82.70;;;;;;5072468;28;20420;-38
2021/04/05 08:11:12;;;;;;;6.38;1.98;;;3.80;82.40;;;;;;5081880;28;20476;-39
2021/04/05 08:14:02;;;;;;;2.33;0.95;;;3.30;87.10;;;;;;5084931;28;20109;-39
2021/04/05 08:17:04;;;;;;;5.50;1.17;;;3.10;89.40;;;;;;5086327;28;20047;-39
2021/04/05 08:20:01;;;;;;;5.15;1.65;;;3.00;90.00;;;;;;5074242;28;20063;-39
2021/04/05 08:22:34;;;;;;;6.97;1.30;;;2.80;90.80;;;;;;5050845;28;20076;-39
2021/04/05 08:25:45;;;;;;;10.40;1.73;;;2.60;90.90;;;;;;5058104;28;20045;-39
2021/04/05 08:28:49;;;;;;;12.98;2.00;;;2.50;91.70;;;;;;4972874;28;20145;-38
2021/04/05 08:31:28;;;;;;;12.98;2.40;;;2.60;91.60;;;;;;4906023;29;20052;-38
2021/04/05 08:34:13;;;;;;;15.13;2.60;;;2.80;91.00;;;;;;4906883;29;20052;-38
2021/04/05 08:36:50;;;;;;;9.15;2.25;;;3.00;89.20;;;;;;4905325;29;20048;-38
2021/04/05 08:39:42;;;;;;;17.00;5.30;;;3.00;88.00;;;;;;4907199;29;20056;-38
2021/04/05 08:43:02;;;;;;;15.95;6.20;;;2.80;85.90;;;;;;4906153;29;20064;-39
2021/04/05 08:46:03;;;;;;;12.10;4.05;;;2.80;87.50;;;;;;4896019;29;20048;-38
2021/04/05 08:48:43;;;;;;;17.60;4.28;;;2.40;88.30;;;;;;4898710;29;20058;-39
2021/04/05 08:51:17;;;;;;;13.10;3.75;;;2.50;90.10;;;;;;4894969;29;20396;-39
2021/04/05 08:53:49;;;;;;;18.58;3.15;;;2.60;89.60;;;;;;4890227;29;20108;-39
2021/04/05 08:56:21;;;;;;;14.23;4.90;;;2.70;88.90;;;;;;4898221;29;20394;-39
2021/04/05 08:59:07;;;;;;;15.27;3.33;;;3.00;89.60;;;;;;4892180;29;20104;-39
2021/04/05 09:01:48;;;;;;;15.13;3.58;;;3.10;86.50;;;;;;4877719;29;20055;-39
2021/04/05 09:04:22;;;;;;;13.68;4.68;;;3.10;85.50;;;;;;4909682;29;20059;-39
2021/04/05 09:07:14;;;;;;;13.88;3.38;;;3.70;84.50;;;;;;4931203;29;20146;-40
2021/04/05 09:09:41;;;;;;;14.38;3.20;;;4.40;83.10;;;;;;5022079;28;20042;-39
2021/04/05 09:12:12;;;;;;;13.02;2.88;;;5.10;80.00;;;;;;5022086;28;20045;-38
2021/04/05 09:15:15;;;;;;;13.55;3.25;;;5.40;78.00;;;;;;5030045;28;20050;-39
2021/04/05 09:18:08;;;;;;;11.65;2.67;;;5.10;76.80;;;;;;5022783;28;20053;-39
2021/04/05 09:20:43;;;;;;;13.60;2.90;;;4.60;76.80;;;;;;5076698;28;20050;-38
2021/04/05 09:23:46;;;;;;;12.85;2.72;;;3.60;77.70;;;;;;5085490;28;20564;-39
2021/04/05 09:26:42;;;;;;;9.10;2.40;;;3.40;77.90;;;;;;5085967;28;20040;-39
2021/04/05 09:29:09;;;;;;;8.93;2.17;;;3.40;73.90;;;;;;5074873;28;20646;-39
2021/04/05 09:31:54;;;;;;;9.52;2.28;;;3.70;73.90;;;;;;5088207;28;20404;-39
2021/04/05 09:34:42;;;;;;;9.32;2.30;;;3.80;70.50;;;;;;5087450;28;20546;-39
2021/04/05 09:37:31;;;;;;;11.65;2.55;;;4.20;71.40;;;;;;5093248;28;20040;-40
2021/04/05 09:40:23;;;;;;;13.98;2.22;;;4.20;69.00;;;;;;5088466;28;20044;-38
2021/04/05 09:43:26;;;;;;;10.80;2.70;;;4.70;70.30;;;;;;5088762;28;20079;-39
2021/04/05 09:46:25;;;;;;;15.25;3.22;;;5.50;71.40;;;;;;5088816;28;20056;-38
2021/04/05 09:49:17;;;;;;;13.32;3.28;;;5.40;66.20;;;;;;5088481;28;20040;-38
2021/04/05 09:52:03;;;;;;;17.90;3.53;;;5.90;68.30;;;;;;5084185;28;20055;-39
2021/04/05 09:54:59;;;;;;;9.90;2.72;;;6.40;63.80;;;;;;5085691;28;20219;-39
2021/04/05 09:57:37;;;;;;;13.85;3.17;;;7.50;64.70;;;;;;5086487;28;20063;-39
2021/04/05 10:00:14;;;;;;;10.57;2.63;;;7.60;63.30;;;;;;5085867;28;20139;-40
2021/04/05 10:03:09;;;;;;;7.88;2.28;;;7.00;59.80;;;;;;5075498;28;20049;-39
2021/04/05 10:05:49;;;;;;;9.35;1.80;;;7.10;56.40;;;;;;5072663;28;20052;-39
2021/04/05 10:08:29;;;;;;;8.60;2.25;;;7.40;53.90;;;;;;5078708;28;20505;-40
2021/04/05 10:11:06;;;;;;;7.93;1.50;;;7.30;50.40;;;;;;5083294;28;20071;-40
2021/04/05 10:13:41;;;;;;;8.65;1.80;;;7.40;51.40;;;;;;5090168;28;20054;-39
2021/04/05 10:16:16;;;;;;;10.80;1.75;;;7.50;51.10;;;;;;5079582;28;20047;-38
2021/04/05 10:18:52;;;;;;;8.85;1.95;;;7.40;49.70;;;;;;5082130;27;20177;-39
2021/04/05 10:21:22;;;;;;;7.55;1.35;;;8.10;51.50;;;;;;5076470;28;20052;-39
2021/04/05 10:23:59;;;;;;;7.18;2.03;;;8.70;48.30;;;;;;5082815;28;20043;-39
2021/04/05 10:26:35;;;;;;;9.75;2.10;;;9.10;51.80;;;;;;5085824;28;20060;-42
2021/04/05 10:29:19;;;;;;;7.68;2.05;;;8.30;47.90;;;;;;5086294;28;20060;-39
2021/04/05 10:31:50;;;;;;;7.18;1.45;;;7.30;48.80;;;;;;5081211;28;20059;-40
2021/04/05 10:34:24;;;;;;;6.50;1.60;;;6.40;47.60;;;;;;5085066;28;20040;-38
2021/04/05 10:37:06;;;;;;;8.10;2.15;;;6.90;49.50;;;;;;5082666;28;21696;-39
2021/04/05 10:39:35;;;;;;;6.50;1.60;;;7.80;48.80;;;;;;5083700;28;20058;-38
2021/04/05 10:42:20;;;;;;;12.65;7.45;;;8.40;43.40;;;;;;5106249;27;20309;-39
2021/04/05 10:44:47;;;;;;;2.60;0.93;;;8.60;41.70;;;;;;5078888;28;20071;-39
2021/04/05 10:47:24;;;;;;;13.13;5.95;;;9.10;43.10;;;;;;5080723;28;20048;-37
2021/04/05 10:49:55;;;;;;;6.45;0.98;;;9.80;43.20;;;;;;5078713;28;20044;-37
2021/04/05 10:52:51;;;;;;;8.55;1.88;;;10.10;40.70;;;;;;5082513;28;20052;-37
2021/04/05 10:55:27;;;;;;;7.18;2.67;;;10.20;41.50;;;;;;5080851;28;20044;-38
2021/04/05 10:58:02;;;;;;;7.82;1.73;;;10.50;42.10;;;;;;5083970;28;20146;-41
2021/04/05 11:00:35;;;;;;;7.18;1.10;;;9.10;40.60;;;;;;5082300;28;20051;-37
2021/04/05 11:03:14;;;;;;;5.80;1.40;;;8.50;43.10;;;;;;5080855;28;20048;-37
2021/04/05 11:05:43;;;;;;;5.03;1.23;;;8.70;43.40;;;;;;5079056;28;20122;-37
2021/04/05 11:08:19;;;;;;;3.05;1.00;;;8.80;41.70;;;;;;5082764;28;20052;-37
2021/04/05 11:10:50;;;;;;;3.38;1.10;;;9.30;41.60;;;;;;5082048;28;20545;-37
2021/04/05 11:13:22;;;;;;;6.55;1.27;;;9.60;39.10;;;;;;5081053;28;20048;-37
2021/04/05 11:15:51;;;;;;;6.90;1.52;;;9.80;39.40;;;;;;5080426;28;20523;-38
2021/04/05 11:18:30;;;;;;;5.82;1.50;;;9.40;43.50;;;;;;5077020;28;20511;-38
2021/04/05 11:21:06;;;;;;;6.78;1.73;;;7.70;47.00;;;;;;5082142;28;20067;-38
2021/04/05 11:23:35;;;;;;;7.82;2.00;;;7.80;50.20;;;;;;5081806;28;20044;-38
2021/04/05 11:26:07;;;;;;;7.57;2.00;;;8.70;48.20;;;;;;5083210;28;20055;-38
2021/04/05 11:28:47;;;;;;;8.63;1.70;;;8.80;47.90;;;;;;5081961;28;20044;-37
2021/04/05 11:31:17;;;;;;;10.55;1.35;;;9.00;43.50;;;;;;5079729;28;20052;-36
2021/04/05 11:34:04;;;;;;;4.50;1.13;;;8.30;43.10;;;;;;5083726;28;20051;-40
2021/04/05 11:36:47;;;;;;;2.38;0.85;;;9.40;42.20;;;;;;5081919;28;20058;-39
2021/04/05 11:39:19;;;;;;;5.18;0.80;;;9.40;39.00;;;;;;5083001;28;20129;-38
2021/04/05 11:41:53;;;;;;;3.60;0.70;;;8.20;38.90;;;;;;5082779;28;20127;-38
2021/04/05 11:44:28;;;;;;;2.35;0.70;;;7.40;39.80;;;;;;5084921;28;20099;-39
2021/04/05 11:46:56;;;;;;;2.42;0.60;;;6.30;41.70;;;;;;5077618;28;20055;-38
2021/04/05 11:49:30;;;;;;;1.85;0.60;;;6.10;48.90;;;;;;5081689;28;20397;-37
2021/04/05 11:52:16;;;;;;;3.20;0.60;;;6.10;50.50;;;;;;5087259;28;20099;-37
2021/04/05 11:55:00;;;;;;;18.25;11.98;;;6.00;53.20;;;;;;5084216;28;20570;-37
2021/04/05 11:57:39;;;;;;;7.47;3.03;;;5.80;55.50;;;;;;5078400;28;20056;-37
2021/04/05 12:00:09;;;;;;;4.28;2.28;;;4.90;57.70;;;;;;5081455;28;20051;-37
2021/04/05 12:02:51;;;;;;;9.13;3.63;;;4.40;65.20;;;;;;5077463;28;20044;-37
2021/04/05 12:05:34;;;;;;;13.60;7.95;;;4.20;69.60;;;;;;5079878;28;20118;-37
2021/04/05 12:08:14;;;;;;;7.18;1.60;;;4.90;69.20;;;;;;5082859;28;20068;-37
2021/04/05 12:10:57;;;;;;;5.47;1.38;;;6.00;67.00;;;;;;5080964;28;20043;-37
2021/04/05 12:13:34;;;;;;;5.28;1.80;;;7.40;62.40;;;;;;5082468;28;20044;-37
2021/04/05 12:16:04;;;;;;;6.75;2.20;;;8.60;59.30;;;;;;5081895;28;20599;-37
2021/04/05 12:18:59;;;;;;;9.15;2.25;;;8.90;53.40;;;;;;5073717;28;20047;-37
2021/04/05 12:21:35;;;;;;;7.63;2.67;;;9.70;50.50;;;;;;5078901;28;20575;-37
2021/04/05 12:24:05;;;;;;;6.50;1.80;;;9.30;45.60;;;;;;5090970;28;20051;-37
2021/04/05 12:26:37;;;;;;;6.85;1.98;;;9.00;47.50;;;;;;5083792;28;20040;-37
2021/04/05 12:29:07;;;;;;;8.80;1.98;;;8.10;46.90;;;;;;5083404;28;20055;-37
2021/04/05 12:31:36;;;;;;;8.73;1.80;;;8.90;48.50;;;;;;5084045;28;20174;-37
2021/04/05 12:34:14;;;;;;;9.57;2.30;;;8.70;45.90;;;;;;5081746;28;20063;-37
2021/04/05 12:36:45;;;;;;;7.00;1.65;;;8.70;44.10;;;;;;5079726;28;20049;-37
2021/04/05 12:39:30;;;;;;;4.80;1.50;;;9.00;43.10;;;;;;5083349;28;20052;-37
2021/04/05 12:42:08;;;;;;;8.65;2.08;;;8.50;43.10;;;;;;5082594;28;20504;-36
2021/04/05 12:44:39;;;;;;;11.20;2.90;;;7.60;46.60;;;;;;5081348;28;20067;-37
2021/04/05 12:47:11;;;;;;;7.75;3.70;;;7.40;52.20;;;;;;5073114;28;20063;-45
2021/04/05 12:49:45;;;;;;;7.03;1.15;;;6.60;53.60;;;;;;5081659;28;20043;-38
2021/04/05 12:52:17;;;;;;;7.75;1.90;;;5.80;57.80;;;;;;5082824;28;20444;-37
2021/04/05 12:54:56;;;;;;;10.93;4.38;;;4.90;63.80;;;;;;5079505;28;20052;-37
2021/04/05 12:57:34;;;;;;;9.63;1.58;;;4.50;70.40;;;;;;5083741;28;20048;-37
2021/04/05 13:00:08;;;;;;;5.97;2.28;;;4.40;69.00;;;;;;5084686;28;20461;-44
2021/04/05 13:02:45;;;;;;;7.03;2.33;;;5.60;68.40;;;;;;5083864;28;20048;-36
2021/04/05 13:05:42;;;;;;;8.57;2.88;;;6.30;64.80;;;;;;5083976;28;20044;-37
2021/04/05 13:08:29;;;;;;;10.07;3.95;;;7.00;64.50;;;;;;5083902;28;20078;-37
2021/04/05 13:11:29;;;;;;;5.15;1.45;;;8.00;62.90;;;;;;5087876;28;20143;-37
2021/04/05 13:14:15;;;;;;;5.68;1.25;;;9.10;57.90;;;;;;5085339;28;20400;-37
2021/04/05 13:17:11;;;;;;;4.60;1.30;;;10.00;55.00;;;;;;5084308;28;20047;-37
2021/04/05 13:20:04;;;;;;;3.78;1.33;;;10.30;48.20;;;;;;5083182;28;20131;-37
2021/04/05 13:22:40;;;;;;;4.10;1.10;;;10.30;47.30;;;;;;5089095;28;20050;-37
2021/04/05 13:25:18;;;;;;;4.15;1.08;;;10.50;46.60;;;;;;5084538;28;20052;-37
2021/04/05 13:27:49;;;;;;;4.60;1.20;;;11.10;45.30;;;;;;5086073;28;20057;-37
2021/04/05 13:30:19;;;;;;;3.03;1.08;;;11.10;46.00;;;;;;5084813;28;20553;-37
2021/04/05 13:32:53;;;;;;;;;;;11.40;42.10;;;;;;5083399;28;20069;-37
2021/04/05 13:35:26;;;;;;;3.13;1.00;;;10.90;42.10;;;;;;5085129;28;19924;-37
2021/04/05 13:38:21;;;;;;;3.05;0.82;;;11.10;43.80;;;;;;5082792;28;20166;-38